createdAt,value
2022-11-29T00:02:43.567Z,9.10
2022-11-29T00:05:30.636Z,8.67
2022-11-29T00:08:18.485Z,8.60
2022-11-29T00:11:07.325Z,8.97
2022-11-29T00:13:54.241Z,9.10
2022-11-29T00:16:41.703Z,8.33
2022-11-29T00:19:29.232Z,9.17
2022-11-29T00:22:16.298Z,9.17
2022-11-29T00:25:04.711Z,9.23
2022-11-29T00:27:51.951Z,9.63
2022-11-29T00:30:39.437Z,9.90
2022-11-29T00:33:27.115Z,9.27
2022-11-29T00:36:14.740Z,9.20
2022-11-29T00:39:03.461Z,8.03
2022-11-29T00:41:50.453Z,9.00
2022-11-29T00:44:37.396Z,9.57
2022-11-29T00:47:24.433Z,8.90
2022-11-29T00:50:11.611Z,9.00
2022-11-29T00:52:58.559Z,9.27
2022-11-29T00:55:48.459Z,9.13
2022-11-29T00:58:36.853Z,9.50
2022-11-29T01:01:23.915Z,8.87
2022-11-29T01:04:10.918Z,8.60
2022-11-29T01:06:57.868Z,9.13
2022-11-29T01:09:44.819Z,9.63
2022-11-29T01:12:34.497Z,9.40
2022-11-29T01:15:21.480Z,9.30
2022-11-29T01:18:08.520Z,9.90
2022-11-29T01:21:09.870Z,9.17
2022-11-29T01:23:57.360Z,9.40
2022-11-29T01:26:44.315Z,9.70
2022-11-29T01:29:31.253Z,10.37
2022-11-29T01:32:18.232Z,10.13
2022-11-29T01:35:06.597Z,9.67
2022-11-29T01:37:53.531Z,9.80
2022-11-29T01:40:40.457Z,8.97
2022-11-29T01:43:29.354Z,9.73
2022-11-29T01:46:16.366Z,9.47
2022-11-29T01:49:19.297Z,8.43
2022-11-29T01:52:25.522Z,9.13
2022-11-29T01:55:13.266Z,9.67
2022-11-29T01:58:00.675Z,9.57
2022-11-29T02:00:47.715Z,10.10
2022-11-29T02:03:34.719Z,10.53
2022-11-29T02:06:22.767Z,9.80
2022-11-29T02:09:21.780Z,10.17
2022-11-29T02:12:23.580Z,9.37
2022-11-29T02:15:17.371Z,11.23
2022-11-29T02:18:14.606Z,9.73
2022-11-29T02:21:36.948Z,10.60
2022-11-29T02:24:52.160Z,9.63
2022-11-29T02:28:16.983Z,9.90
2022-11-29T02:31:38.020Z,10.13
2022-11-29T02:34:50.723Z,10.33
2022-11-29T02:37:56.309Z,11.10
2022-11-29T02:41:20.411Z,9.70
2022-11-29T02:44:16.532Z,9.93
2022-11-29T02:47:09.197Z,9.90
2022-11-29T02:50:19.428Z,10.43
2022-11-29T02:53:19.751Z,9.43
2022-11-29T02:56:31.624Z,9.87
2022-11-29T02:59:48.141Z,10.40
2022-11-29T03:02:50.543Z,9.40
2022-11-29T03:05:49.615Z,10.63
2022-11-29T03:08:45.666Z,9.63
2022-11-29T03:11:56.707Z,9.67
2022-11-29T03:14:56.690Z,9.93
2022-11-29T03:18:03.530Z,9.27
2022-11-29T03:21:19.068Z,9.93
2022-11-29T03:24:13.737Z,10.07
2022-11-29T03:27:09.624Z,9.67
2022-11-29T03:29:59.364Z,9.90
2022-11-29T03:33:14.322Z,8.73
2022-11-29T03:36:18.557Z,9.70
2022-11-29T03:39:13.297Z,9.77
2022-11-29T03:42:05.640Z,9.63
2022-11-29T03:44:59.471Z,10.40
2022-11-29T03:48:32.960Z,10.40
2022-11-29T03:51:57.576Z,10.33
2022-11-29T03:54:55.203Z,9.87
2022-11-29T03:58:11.184Z,10.50
2022-11-29T04:01:19.271Z,10.37
2022-11-29T04:04:24.608Z,10.17
2022-11-29T04:07:14.812Z,10.63
2022-11-29T04:10:45.336Z,10.60
2022-11-29T04:13:35.575Z,11.17
2022-11-29T04:16:31.775Z,10.60
2022-11-29T04:19:49.669Z,10.33
2022-11-29T04:23:11.781Z,10.57
2022-11-29T04:26:34.626Z,11.23
2022-11-29T04:29:58.877Z,10.30
2022-11-29T04:33:15.496Z,10.10
2022-11-29T04:36:32.643Z,10.50
2022-11-29T04:39:28.295Z,10.43
2022-11-29T04:42:38.965Z,10.50
2022-11-29T04:45:28.572Z,11.00
2022-11-29T04:48:43.984Z,10.60
2022-11-29T04:51:36.985Z,10.90
2022-11-29T04:54:50.348Z,11.10
2022-11-29T04:57:46.142Z,11.50
2022-11-29T05:00:58.329Z,12.00
2022-11-29T05:04:02.599Z,10.57
2022-11-29T05:06:58.186Z,10.90
2022-11-29T05:10:03.473Z,11.40
2022-11-29T05:13:17.745Z,10.57
2022-11-29T05:16:36.821Z,10.60
2022-11-29T05:20:01.523Z,10.53
2022-11-29T05:23:04.746Z,11.83
2022-11-29T05:25:58.118Z,10.50
2022-11-29T05:29:11.930Z,10.87
2022-11-29T05:32:25.274Z,9.73
2022-11-29T05:35:30.987Z,11.33
2022-11-29T05:38:32.945Z,11.30
2022-11-29T05:41:38.670Z,11.07
2022-11-29T05:44:44.128Z,11.27
2022-11-29T05:47:49.036Z,11.27
2022-11-29T05:50:47.929Z,10.93
2022-11-29T05:53:48.094Z,11.40
2022-11-29T05:56:48.383Z,10.77
2022-11-29T05:59:38.641Z,11.60
2022-11-29T06:02:46.398Z,10.73
2022-11-29T06:05:50.145Z,10.53
2022-11-29T06:08:48.625Z,10.67
2022-11-29T06:11:42.146Z,10.67
2022-11-29T06:14:46.843Z,10.40
2022-11-29T06:17:48.667Z,11.30
2022-11-29T06:20:57.211Z,11.37
2022-11-29T06:24:12.171Z,10.97
2022-11-29T06:27:37.708Z,11.60
2022-11-29T06:30:53.363Z,11.47
2022-11-29T06:34:12.210Z,11.53
2022-11-29T06:37:16.773Z,10.37
2022-11-29T06:40:05.452Z,11.20
2022-11-29T06:42:52.433Z,11.40
2022-11-29T06:45:45.929Z,11.57
2022-11-29T06:48:45.615Z,11.20
2022-11-29T06:51:50.874Z,10.70
2022-11-29T06:54:53.256Z,12.30
2022-11-29T06:57:51.823Z,11.03
2022-11-29T07:00:48.717Z,11.87
2022-11-29T07:04:04.335Z,11.73
2022-11-29T07:06:51.526Z,12.63
2022-11-29T07:09:38.843Z,10.77
2022-11-29T07:12:26.687Z,11.47
2022-11-29T07:15:19.666Z,10.53
2022-11-29T07:18:41.858Z,11.13
2022-11-29T07:21:48.395Z,10.70
2022-11-29T07:24:47.001Z,12.07
2022-11-29T07:27:47.147Z,11.23
2022-11-29T07:30:40.006Z,11.57
2022-11-29T07:33:45.601Z,11.07
2022-11-29T07:37:17.282Z,11.97
2022-11-29T07:40:54.909Z,11.60
2022-11-29T07:44:02.053Z,11.70
2022-11-29T07:46:49.114Z,11.87
2022-11-29T07:49:36.058Z,12.10
2022-11-29T07:52:23.077Z,11.70
2022-11-29T07:55:19.100Z,11.50
2022-11-29T07:58:06.230Z,11.10
2022-11-29T08:00:53.194Z,12.30
2022-11-29T08:03:42.084Z,11.50
2022-11-29T08:06:29.097Z,12.30
2022-11-29T08:09:16.102Z,11.97
2022-11-29T08:12:03.568Z,10.93
2022-11-29T08:14:50.596Z,11.57
2022-11-29T08:17:38.558Z,11.43
2022-11-29T08:20:25.659Z,11.87
2022-11-29T08:23:13.526Z,11.87
2022-11-29T08:26:02.164Z,12.50
2022-11-29T08:28:52.410Z,12.73
2022-11-29T08:31:39.395Z,12.90
2022-11-29T08:34:26.421Z,11.27
2022-11-29T08:37:13.644Z,12.00
2022-11-29T08:40:00.620Z,12.50
2022-11-29T08:42:47.630Z,13.13
2022-11-29T08:45:34.621Z,12.10
2022-11-29T08:48:21.549Z,12.60
2022-11-29T08:51:08.505Z,11.70
2022-11-29T08:53:55.426Z,12.20
2022-11-29T08:59:49.310Z,11.30
2022-11-29T09:02:37.086Z,11.47
2022-11-29T09:05:24.212Z,11.23
2022-11-29T09:08:11.171Z,11.53
2022-11-29T09:10:58.102Z,12.53
2022-11-29T09:13:46.829Z,12.47
2022-11-29T09:16:38.284Z,12.07
2022-11-29T09:19:25.288Z,13.00
2022-11-29T09:22:12.228Z,12.17
2022-11-29T09:24:59.360Z,12.47
2022-11-29T09:27:46.290Z,12.37
2022-11-29T09:30:34.996Z,11.30
2022-11-29T09:33:22.211Z,11.93
2022-11-29T09:36:10.865Z,11.63
2022-11-29T09:39:02.511Z,12.60
2022-11-29T09:42:12.153Z,12.10
2022-11-29T09:45:14.172Z,11.87
2022-11-29T09:48:28.342Z,13.17
2022-11-29T09:51:31.310Z,12.73
2022-11-29T09:54:27.734Z,12.53
2022-11-29T09:57:17.515Z,12.80
2022-11-29T10:00:14.220Z,12.20
2022-11-29T10:03:18.524Z,11.63
2022-11-29T10:06:16.812Z,13.83
2022-11-29T10:09:34.124Z,12.63
2022-11-29T10:12:46.005Z,13.47
2022-11-29T10:15:41.064Z,12.00
2022-11-29T10:18:49.648Z,12.87
2022-11-29T10:21:39.754Z,12.27
2022-11-29T10:24:29.318Z,12.37
2022-11-29T10:27:21.166Z,12.67
2022-11-29T10:30:15.407Z,12.00
2022-11-29T10:33:02.772Z,11.90
2022-11-29T10:35:55.571Z,12.30
2022-11-29T10:38:44.736Z,11.43
2022-11-29T10:41:32.045Z,12.27
2022-11-29T10:44:20.302Z,13.33
2022-11-29T10:47:10.905Z,11.67
2022-11-29T10:49:58.632Z,11.37
2022-11-29T10:52:45.544Z,13.03
2022-11-29T10:56:01.988Z,14.13
2022-11-29T10:59:05.103Z,13.43
2022-11-29T11:01:52.547Z,12.37
2022-11-29T11:04:46.186Z,13.23
2022-11-29T11:07:35.921Z,15.93
2022-11-29T11:10:28.165Z,14.47
2022-11-29T11:13:27.418Z,12.00
2022-11-29T11:16:20.356Z,15.57
2022-11-29T11:19:27.767Z,15.20
2022-11-29T11:22:22.073Z,13.73
2022-11-29T11:25:37.194Z,14.27
2022-11-29T11:28:28.331Z,12.50
2022-11-29T11:31:24.707Z,11.30
2022-11-29T11:34:37.020Z,15.37
2022-11-29T11:37:29.512Z,14.50
2022-11-29T11:40:27.116Z,17.87
2022-11-29T11:43:21.481Z,18.60
2022-11-29T11:46:09.362Z,16.67
2022-11-29T11:48:57.001Z,12.73
2022-11-29T11:51:44.147Z,11.77
2022-11-29T11:54:31.550Z,11.17
2022-11-29T11:57:20.374Z,11.70
2022-11-29T12:04:11.352Z,10.77
2022-11-29T12:07:02.899Z,10.40
2022-11-29T12:09:56.105Z,10.13
2022-11-29T12:12:45.014Z,10.67
2022-11-29T12:15:42.361Z,10.60
2022-11-29T12:18:42.032Z,10.43
2022-11-29T12:21:37.651Z,10.37
2022-11-29T12:24:31.152Z,10.63
2022-11-29T12:27:18.327Z,9.70
2022-11-29T12:30:15.079Z,10.27
2022-11-29T12:33:39.521Z,9.97
2022-11-29T12:36:47.636Z,10.60
2022-11-29T12:39:56.927Z,10.40
2022-11-29T12:42:52.976Z,9.70
2022-11-29T12:46:02.128Z,10.87
2022-11-29T12:49:14.875Z,10.57
2022-11-29T12:52:28.405Z,10.30
2022-11-29T12:55:26.090Z,9.73
2022-11-29T12:58:46.461Z,10.20
2022-11-29T13:02:18.270Z,9.87
2022-11-29T13:05:35.363Z,9.27
2022-11-29T13:08:41.147Z,9.27
2022-11-29T13:11:36.189Z,9.93
2022-11-29T13:14:42.756Z,8.97
2022-11-29T13:18:01.219Z,9.80
2022-11-29T13:20:58.007Z,10.13
2022-11-29T13:24:10.316Z,10.33
2022-11-29T13:26:58.739Z,10.03
2022-11-29T13:29:47.015Z,10.50
2022-11-29T13:32:40.015Z,10.13
2022-11-29T13:35:37.377Z,10.03
2022-11-29T13:38:41.311Z,9.83
2022-11-29T13:41:40.411Z,10.50
2022-11-29T13:44:46.390Z,9.60
2022-11-29T13:47:48.486Z,10.63
2022-11-29T13:50:41.463Z,10.17
2022-11-29T13:53:48.225Z,10.23
2022-11-29T13:56:46.434Z,10.03
2022-11-29T13:59:36.628Z,11.07
2022-11-29T14:02:29.821Z,10.20
2022-11-29T14:05:28.132Z,11.03
2022-11-29T14:08:27.025Z,10.40
2022-11-29T14:11:13.871Z,9.67
2022-11-29T14:14:07.382Z,9.90
2022-11-29T14:17:05.167Z,9.67
2022-11-29T14:19:52.326Z,10.37
2022-11-29T14:23:05.165Z,10.33
2022-11-29T14:25:54.838Z,11.07
2022-11-29T14:28:41.790Z,10.70
2022-11-29T14:31:51.993Z,10.37
2022-11-29T14:34:46.764Z,10.43
2022-11-29T14:37:48.894Z,10.60
2022-11-29T14:40:41.821Z,10.57
2022-11-29T14:43:31.358Z,11.07
2022-11-29T14:46:18.246Z,11.47
2022-11-29T14:49:05.659Z,10.57
2022-11-29T14:52:09.800Z,11.93
2022-11-29T14:55:07.545Z,11.70
2022-11-29T14:58:15.814Z,11.80
2022-11-29T15:01:09.552Z,11.10
2022-11-29T15:03:57.668Z,11.33
2022-11-29T15:06:50.169Z,11.27
2022-11-29T15:09:41.583Z,10.63
2022-11-29T15:12:34.371Z,11.83
2022-11-29T15:15:38.769Z,11.53
2022-11-29T15:18:50.492Z,11.20
2022-11-29T15:21:57.111Z,12.27
2022-11-29T15:24:53.292Z,12.10
2022-11-29T15:28:00.776Z,12.10
2022-11-29T15:30:48.991Z,13.00
2022-11-29T15:33:40.742Z,12.93
2022-11-29T15:36:28.361Z,13.10
2022-11-29T15:39:30.350Z,16.70
2022-11-29T15:42:17.393Z,29.60
2022-11-29T15:45:22.647Z,28.73
2022-11-29T15:48:15.695Z,23.93
2022-11-29T15:51:15.790Z,22.93
2022-11-29T15:54:13.914Z,23.63
2022-11-29T15:57:27.036Z,27.23
2022-11-29T16:00:20.347Z,38.73
2022-11-29T16:03:16.709Z,21.07
2022-11-29T16:06:09.716Z,30.77
2022-11-29T16:08:56.946Z,28.40
2022-11-29T16:11:46.072Z,27.30
2022-11-29T16:14:33.152Z,23.17
2022-11-29T16:17:21.008Z,16.97
2022-11-29T16:20:13.650Z,21.17
2022-11-29T16:23:07.497Z,26.40
2022-11-29T16:25:54.644Z,25.43
2022-11-29T16:28:49.929Z,19.67
2022-11-29T16:31:38.327Z,16.23
2022-11-29T16:34:29.962Z,14.13
2022-11-29T16:37:25.680Z,13.70
2022-11-29T16:40:22.770Z,12.50
2022-11-29T16:43:47.356Z,12.83
2022-11-29T16:46:39.373Z,12.03
2022-11-29T16:49:33.501Z,13.07
2022-11-29T16:52:31.659Z,14.50
2022-11-29T16:55:18.773Z,14.23
2022-11-29T16:58:05.723Z,13.73
2022-11-29T17:00:52.740Z,13.37
2022-11-29T17:03:39.697Z,14.20
2022-11-29T17:06:28.615Z,15.30
2022-11-29T17:09:22.917Z,15.67
2022-11-29T17:12:13.215Z,13.83
2022-11-29T17:15:00.144Z,13.40
2022-11-29T17:17:47.109Z,13.17
2022-11-29T17:20:34.198Z,12.57
2022-11-29T17:23:21.116Z,12.90
2022-11-29T17:26:09.138Z,13.93
2022-11-29T17:28:56.198Z,14.03
2022-11-29T17:31:45.063Z,13.67
2022-11-29T17:34:33.256Z,13.87
2022-11-29T17:37:20.332Z,14.30
2022-11-29T17:40:08.272Z,14.47
2022-11-29T17:42:55.705Z,13.97
2022-11-29T17:45:42.754Z,12.93
2022-11-29T17:48:33.531Z,14.00
2022-11-29T17:51:50.573Z,14.27
2022-11-29T17:54:33.003Z,14.53
2022-11-29T17:57:20.029Z,14.20
2022-11-29T18:00:08.792Z,14.40
2022-11-29T18:02:55.779Z,14.57
2022-11-29T18:05:42.731Z,14.47
2022-11-29T18:08:29.696Z,13.70
2022-11-29T18:11:20.355Z,15.70
2022-11-29T18:14:07.606Z,18.30
2022-11-29T18:16:54.596Z,17.97
2022-11-29T18:19:42.421Z,17.40
2022-11-29T18:22:29.372Z,16.53
2022-11-29T18:25:38.195Z,14.63
2022-11-29T18:28:23.604Z,14.23
2022-11-29T18:31:15.575Z,13.63
2022-11-29T18:34:09.639Z,13.07
2022-11-29T18:36:56.985Z,13.30
2022-11-29T18:39:44.544Z,13.90
2022-11-29T18:42:31.873Z,15.20
2022-11-29T18:45:19.014Z,14.23
2022-11-29T18:48:06.168Z,28.50
2022-11-29T18:50:53.244Z,16.57
2022-11-29T18:53:41.835Z,13.10
2022-11-29T18:56:31.353Z,11.10
2022-11-29T18:59:18.555Z,10.63
2022-11-29T19:02:05.691Z,11.00
2022-11-29T19:04:52.833Z,9.83
2022-11-29T19:07:39.971Z,9.97
2022-11-29T19:10:27.079Z,10.00
2022-11-29T19:13:14.185Z,9.90
2022-11-29T19:16:04.463Z,8.87
2022-11-29T19:18:54.118Z,9.47
2022-11-29T19:21:41.629Z,9.87
2022-11-29T19:24:28.752Z,8.87
2022-11-29T19:27:16.522Z,9.77
2022-11-29T19:30:03.869Z,9.50
2022-11-29T19:32:51.040Z,9.50
2022-11-29T19:35:38.124Z,9.17
2022-11-29T19:38:25.211Z,10.03
2022-11-29T19:41:12.210Z,10.50
2022-11-29T19:44:01.907Z,10.90
2022-11-29T19:46:49.009Z,9.77
2022-11-29T19:49:36.856Z,10.33
2022-11-29T19:52:24.083Z,9.37
2022-11-29T19:55:11.308Z,9.73
2022-11-29T19:57:58.428Z,10.20
2022-11-29T20:00:45.494Z,10.07
2022-11-29T20:03:32.736Z,10.73
2022-11-29T20:06:19.870Z,11.30
2022-11-29T20:09:07.594Z,12.00
2022-11-29T20:11:54.732Z,12.73
2022-11-29T20:14:41.842Z,13.20
2022-11-29T20:17:28.928Z,14.37
2022-11-29T20:20:16.052Z,15.47
2022-11-29T20:23:03.473Z,14.90
2022-11-29T20:25:51.380Z,15.07
2022-11-29T20:28:38.462Z,14.23
2022-11-29T20:31:26.153Z,13.70
2022-11-29T20:34:14.395Z,14.57
2022-11-29T20:37:07.267Z,13.93
2022-11-29T20:40:02.398Z,13.37
2022-11-29T20:43:14.618Z,14.00
2022-11-29T20:46:01.952Z,13.20
2022-11-29T20:48:49.518Z,13.13
2022-11-29T20:51:48.412Z,13.43
2022-11-29T20:54:35.488Z,13.37
2022-11-29T20:57:22.580Z,13.00
2022-11-29T21:00:11.583Z,13.13
2022-11-29T21:02:58.651Z,13.93
2022-11-29T21:05:47.043Z,13.70
2022-11-29T21:08:34.853Z,13.50
2022-11-29T21:11:22.299Z,13.83
2022-11-29T21:14:09.626Z,12.90
2022-11-29T21:16:56.915Z,13.17
2022-11-29T21:19:44.198Z,13.00
2022-11-29T21:22:46.886Z,13.10
2022-11-29T21:25:49.008Z,13.40
2022-11-29T21:28:44.697Z,13.57
2022-11-29T21:31:33.618Z,15.07
2022-11-29T21:34:21.601Z,13.90
2022-11-29T21:37:08.957Z,14.27
2022-11-29T21:39:57.553Z,14.73
2022-11-29T21:42:44.487Z,13.77
2022-11-29T21:45:31.426Z,14.70
2022-11-29T21:48:50.647Z,15.17
2022-11-29T21:51:38.031Z,14.33
2022-11-29T21:54:24.971Z,14.40
2022-11-29T21:57:11.968Z,13.80
2022-11-29T21:59:58.918Z,14.17
2022-11-29T22:02:46.071Z,15.27
2022-11-29T22:05:33.046Z,16.03
2022-11-29T22:08:19.957Z,14.07
2022-11-29T22:11:09.062Z,14.27
2022-11-29T22:14:18.706Z,14.50
2022-11-29T22:17:05.831Z,15.23
2022-11-29T22:19:52.798Z,15.07
2022-11-29T22:22:39.708Z,15.27
2022-11-29T22:25:26.706Z,14.83
2022-11-29T22:28:13.662Z,13.57
2022-11-29T22:31:11.873Z,14.30
2022-11-29T22:33:58.961Z,13.47
2022-11-29T22:36:46.486Z,14.27
2022-11-29T22:39:33.416Z,14.23
2022-11-29T22:42:20.358Z,14.60
2022-11-29T22:45:07.765Z,14.77
2022-11-29T22:47:54.681Z,14.13
2022-11-29T22:50:41.588Z,16.07
2022-11-29T22:53:28.500Z,14.90
2022-11-29T22:56:15.766Z,15.13
2022-11-29T22:59:03.425Z,15.77
2022-11-29T23:01:50.432Z,14.73
2022-11-29T23:04:37.382Z,15.07
2022-11-29T23:07:24.379Z,15.93
2022-11-29T23:10:11.312Z,14.73
2022-11-29T23:12:58.309Z,16.13
2022-11-29T23:15:45.234Z,15.03
2022-11-29T23:18:32.505Z,14.93
2022-11-29T23:21:23.254Z,15.37
2022-11-29T23:24:10.289Z,16.27
2022-11-29T23:26:57.254Z,14.63
2022-11-29T23:29:44.201Z,15.47
2022-11-29T23:32:31.148Z,14.77
2022-11-29T23:35:18.076Z,14.70
2022-11-29T23:38:06.328Z,15.13
2022-11-29T23:40:53.542Z,15.43
2022-11-29T23:43:41.584Z,18.20
2022-11-29T23:46:28.559Z,15.00
2022-11-29T23:49:15.486Z,16.13
2022-11-29T23:52:02.460Z,14.77
2022-11-29T23:54:50.061Z,15.10
2022-11-29T23:57:37.028Z,15.67
